Terminal Aerodrome Forecast
Issued by NWS Bismarck, ND

Home | Current Version | Previous Version | Graphics & Text | Print | Product List | Glossary On
Versions: 1 2 3 4 5 6 7 8 9 10 11 12 13 14 15 16 17 18 19 20 21
000
FTUS43 KBIS 240807 AAC
TAFBIS
TAF AMD
KBIS 240807Z 2408/2506 34007KT 5SM BR SCT015
     FM241600 02006KT P6SM SCT015
     FM241900 02006KT P6SM SCT035
     FM250000 06006KT P6SM SCT100
     FM250500 11006KT P6SM SCT030=

USA.gov is the U.S. government's official web portal to all federal, state and local government web resources and services.